Galena, Alaska
Current Conditions -  °F | °C
As of 11:58 AM on Saturday 25 Oct 2014 (Local Time) from PAGA Reporting Station
Overcast Overcast  
Wind Chill: 27°   Ceiling: 4100
Heat Index: 34°   Visibility: 10mi
Dew Point: 29°   Wind: 8mph
Humidity: 82%   Direction: 160°SSE
Pressure: 29.81"   Gusts: NA
Location:  64.74°N, 156.93°W
Report Text: PAGA 251958Z AUTO 16007KT 10SM OVC041 01/M02 A2981 RMK AO2 SLP102 T00111017 FZRANO
Loading
Personal Weather Stations






























Interactive Weather Map
Tropical Storm Tracking
New forecast layout! Learn more

10-Day Weather Forecast

Advertisements
Track Severe Weather on mobile